KBCB

Virginia Tech / Montgomery Executive Airport

Blacksburg, Virginia, USA
METAR KBCB 251855Z AUTO 19004KT 10SM SCT018 BKN027 OVC075 23/19 A3028 RMK AO2 T02310194
Observed Flight Rules
Sep-25 @ 18:55 UTC (36 minutes ago) Marginal Visual Flight Rules
Wind Visibility Clouds
190° at 4 knots 10 miles
  • Scattered at 1,800' AGL
  • Broken at 2,700' AGL
  • Overcast at 7,500' AGL
Temperatures Readings
Current 23°C / 73°F
Dewpoint 19°C / 66°F
Humidity 78%
Altimeter 30.28" Hg
Pressure 1025 hPa
Elevation 650
METAR KBCB 251855Z AUTO 19004KT 10SM SCT018 BKN027 OVC075 23/19 A3028 RMK AO2 T02310194
Observed Flight Rules
Sep-25 @ 18:55 UTC
(36 minutes ago)
MVFR
Wind Visibility
190° at 4 knots 10 miles
Clouds
  • Scattered at 1,800' AGL
  • Broken at 2,700' AGL
  • Overcast at 7,500' AGL
Temperature Dewpoint
23°C / 73°F 19°C / 66°F
Humidity Altimeter Pressure
78% 30.28" Hg 1025 hPa